ESOW/VST METAR and TAF weather

Enter ICAO airport designator
Station Type Date Time Source
ESOW METAR 2021/03/06 05:20 UTC NOAA

ESOW 060520Z AUTO 24009KT 210V290 9999 NCD 00/M07 Q1015


Station Type Date Time Source
ESOW Decoded METAR 2021/03/06 05:20 UTC NOAA

Vasteras / Hasslo, Sweden (ESOW) 59-35N 016-38E 31M
Mar 06, 2021 - 12:20 AM EST / 2021.03.06 0520 UTC
Wind: from the WSW (240 degrees) at 10 MPH (9 KT) (direction variable):0
Visibility: greater than 7 mile(s):0
Temperature: 32 F (0 C)
Windchill: 23 F (-5 C):1
Dew Point: 19 F (-7 C)
Relative Humidity: 59%
Pressure (altimeter): 29.97 in. Hg (1015 hPa)
ob: ESOW 060520Z AUTO 24009KT 210V290 9999 NCD 00/M07 Q1015
cycle: 5

Station Type Date Time Source
ESOW TAF 2018/11/18 12:33 UTC NOAA

TAF ESOW 181130Z 1812/1914 02015KT 9999 BKN020
TEMPO 1812/1814 02015G25KT

Example: see airport list